• Join FlightAware (Why Join?)
  • Login
  • US Flag 
03:53PM EST


 

Airport Tracker/Info


-or-


 

Live Flight TrackerFlight Track Log ✈ EJA846 ✈ 18-Jun-2013 ✈ KDFW - KHOU

Flight Track Log - Related Links

Times and Time Zones

All times are in EDT time to prevent confusion due to time zone crossing. See the EJA846 flight status page for this flight to view local times or setup timezone preferences in your user account.

Time Position Orientation Groundspeed Altitude Reporting Facility
EDT Latitude Longitude Course Direction KTS MPH feet Rate Location/Type
09:03PM 32.9000 -97.0333 180° South 179 206 1,200  Level Dallas / Fort Worth TRACON
09:04PM 32.8667 -97.0333 180° South 213 245 2,900 2,880 Climbing Dallas / Fort Worth TRACON
09:05PM 32.8000 -97.0333 180° South 255 293 5,900 3,060 Climbing Dallas / Fort Worth TRACON
09:06PM 32.7167 -97.0333 180° South 276 318 9,000 1,800 Climbing Dallas / Fort Worth TRACON
09:08PM 32.5489 -96.9969 170° South 343 395 11,200 1,440 Climbing Fort Worth Center
09:09PM 32.4653 -96.9775 169° South 343 395 13,300 1,980 Climbing Fort Worth Center
09:10PM 32.3586 -96.9558 170° South 349 402 15,200 1,800 Climbing Fort Worth Center
09:11PM 32.2731 -96.9367 169° South 354 407 16,900 1,740 Climbing Fort Worth Center
09:12PM 32.1644 -96.9200 173° South 354 407 18,700 1,680 Climbing Fort Worth Center
09:13PM 32.0642 -96.9011 171° South 354 407 20,300 1,380 Climbing Fort Worth Center
09:14PM 31.9617 -96.8844 172° South 360 414 21,500 1,260 Climbing Fort Worth Center
09:15PM 31.8594 -96.8656 171° South 376 433 22,800 960 Climbing Fort Worth Center
09:15PM 31.8111 -96.8567 171° South 381 438 23,000 120 Climbing Houston Center
09:16PM 31.6969 -96.8369 172° South 402 463 23,000  Level Houston Center
09:18PM 31.5789 -96.8169 172° South 419 482 23,000  Level Houston Center
09:19PM 31.4594 -96.7942 171° South 427 491 23,000  Level Houston Center
09:20PM 31.3461 -96.7389 157° South 433 498 23,000  Level Houston Center
09:21PM 31.2342 -96.6853 158° South 430 495 23,000  Level Houston Center
09:22PM 31.1019 -96.6233 158° South 431 496 23,000  Level Houston Center
09:23PM 30.9906 -96.5708 158° South 428 493 23,000  Level Houston Center
09:24PM 30.8811 -96.5206 158° South 419 482 23,000 -240 Level Houston Center
09:25PM 30.7706 -96.4675 158° South 422 486 22,600 -1,320 Descending Houston Center
09:26PM 30.6592 -96.4161 158° South 424 488 20,300 -2,220 Descending Houston Center
09:27PM 30.5508 -96.3656 158° South 417 480 18,100 -2,220 Descending Houston Center
09:28PM 30.4481 -96.3189 159° South 377 434 16,000 -1,920 Descending Houston Center
09:29PM 30.3753 -96.2519 142° Southeast 322 371 14,300 -1,620 Descending Houston Center
09:30PM 30.2972 -96.2219 162° South 288 331 12,800 -1,620 Descending Houston Center
09:31PM 30.2142 -96.2072 171° South 340 391 11,200 -960 Descending Houston Center
09:32PM 30.1267 -96.1639 157° South 353 406 11,000 -120 Descending Houston Center
09:33PM 30.0344 -96.1164 156° South 348 400 11,000  Level Houston Center
09:34PM 29.9439 -96.0639 153° Southeast 349 402 11,000  Level Houston Center
09:35PM 29.8667 -95.9958 143° Southeast 353 406 11,000 -600 Level Houston Center
09:36PM 29.7914 -95.9272 142° Southeast 333 383 9,900 -1,440 Descending Houston Center
09:37PM 29.7175 -95.8594 141° Southeast 297 342 7,800 -1,800 Descending Houston Center
09:38PM 29.6589 -95.8056 141° Southeast 280 322 6,100 -1,020 Descending Houston Center
09:39PM 29.6042 -95.7567 142° Southeast 271 312 6,000 -60 Descending Houston Center
09:40PM 29.5356 -95.7167 153° Southeast 244 281 6,000 -840 Level Houston Center
09:41PM 29.4758 -95.6828 154° Southeast 261 300 4,400 -1,560 Descending Houston Center
09:42PM 29.4464 -95.6117 115° Southeast 237 273 3,000 -720 Descending Houston Center
09:43PM 29.4467 -95.5447 90° East 232 267 3,000 -480 Level Houston Center
09:44PM 29.4753 -95.4669 67° East 232 267 2,000 -480 Descending Houston Center
09:45PM 29.5153 -95.4214 45° Northeast 207 238 2,000  Level Houston Center
09:46PM 29.5572 -95.3753 44° Northeast 207 238 2,000 -420 Level Houston Center
09:47PM 29.5917 -95.3378 43° Northeast 180 207 1,300 -780 Descending Houston Center
09:48PM 29.6203 -95.3078 42° Northeast 110 127 500 -540 Descending Houston Center
09:49PM 29.6489 -95.2756 44° Northeast 131 151 100 -360 Descending Houston Center
09:51PM 29.6454 -95.2789 115° Southeast  Level Estimated